sensor_id;sensor_type;location;lat;lon;timestamp;pressure;altitude;pressure_sealevel;temperature;humidity
9672;BME280;4874;43.568;27.824;2023-11-19T00:01:26;98025.53;;;2.01;100.00
9672;BME280;4874;43.568;27.824;2023-11-19T00:03:53;98016.81;;;2.24;100.00
9672;BME280;4874;43.568;27.824;2023-11-19T00:06:20;97997.50;;;2.14;100.00
9672;BME280;4874;43.568;27.824;2023-11-19T00:08:46;97986.66;;;1.97;100.00
9672;BME280;4874;43.568;27.824;2023-11-19T00:11:14;98028.22;;;2.12;100.00
9672;BME280;4874;43.568;27.824;2023-11-19T00:13:42;98031.31;;;2.17;100.00
9672;BME280;4874;43.568;27.824;2023-11-19T00:16:08;98024.06;;;2.21;100.00
9672;BME280;4874;43.568;27.824;2023-11-19T00:18:36;98029.56;;;1.94;100.00
9672;BME280;4874;43.568;27.824;2023-11-19T00:21:03;98029.75;;;2.04;100.00
9672;BME280;4874;43.568;27.824;2023-11-19T00:23:29;98034.63;;;2.19;100.00
9672;BME280;4874;43.568;27.824;2023-11-19T00:25:56;98045.81;;;2.10;100.00
9672;BME280;4874;43.568;27.824;2023-11-19T00:28:23;98045.34;;;2.16;100.00
9672;BME280;4874;43.568;27.824;2023-11-19T00:30:50;98047.88;;;2.29;100.00
9672;BME280;4874;43.568;27.824;2023-11-19T00:33:17;98063.38;;;2.43;100.00
9672;BME280;4874;43.568;27.824;2023-11-19T00:35:44;98061.63;;;2.09;100.00
9672;BME280;4874;43.568;27.824;2023-11-19T00:38:11;98046.38;;;2.03;100.00
9672;BME280;4874;43.568;27.824;2023-11-19T00:40:37;98062.19;;;2.01;100.00
9672;BME280;4874;43.568;27.824;2023-11-19T00:43:04;98059.38;;;2.15;100.00
9672;BME280;4874;43.568;27.824;2023-11-19T00:45:31;98065.34;;;2.28;100.00
9672;BME280;4874;43.568;27.824;2023-11-19T00:47:58;98063.53;;;2.07;100.00
9672;BME280;4874;43.568;27.824;2023-11-19T00:50:26;98085.00;;;2.34;100.00
9672;BME280;4874;43.568;27.824;2023-11-19T00:52:52;98055.59;;;1.85;100.00
9672;BME280;4874;43.568;27.824;2023-11-19T00:55:19;98095.09;;;1.93;100.00
9672;BME280;4874;43.568;27.824;2023-11-19T00:57:46;98090.53;;;2.07;100.00
9672;BME280;4874;43.568;27.824;2023-11-19T01:00:13;98078.84;;;2.00;100.00
9672;BME280;4874;43.568;27.824;2023-11-19T01:02:46;98087.75;;;1.98;100.00
9672;BME280;4874;43.568;27.824;2023-11-19T01:05:14;98076.56;;;1.96;100.00
9672;BME280;4874;43.568;27.824;2023-11-19T01:07:41;98043.38;;;1.96;100.00
9672;BME280;4874;43.568;27.824;2023-11-19T01:10:07;98085.38;;;2.06;100.00
9672;BME280;4874;43.568;27.824;2023-11-19T01:12:35;98110.06;;;1.91;100.00
9672;BME280;4874;43.568;27.824;2023-11-19T01:15:02;98100.19;;;1.83;100.00
9672;BME280;4874;43.568;27.824;2023-11-19T01:17:28;98103.94;;;2.03;100.00
9672;BME280;4874;43.568;27.824;2023-11-19T01:19:58;98073.84;;;1.74;100.00
9672;BME280;4874;43.568;27.824;2023-11-19T01:22:24;98091.50;;;1.83;100.00
9672;BME280;4874;43.568;27.824;2023-11-19T01:24:51;98128.16;;;1.94;100.00
9672;BME280;4874;43.568;27.824;2023-11-19T01:27:18;98115.66;;;1.86;100.00
9672;BME280;4874;43.568;27.824;2023-11-19T01:29:45;98117.00;;;1.92;100.00
9672;BME280;4874;43.568;27.824;2023-11-19T01:32:12;98136.84;;;1.94;100.00
9672;BME280;4874;43.568;27.824;2023-11-19T01:34:39;98134.00;;;1.97;100.00
9672;BME280;4874;43.568;27.824;2023-11-19T01:37:05;98136.34;;;1.89;100.00
9672;BME280;4874;43.568;27.824;2023-11-19T01:39:32;98132.50;;;2.06;100.00
9672;BME280;4874;43.568;27.824;2023-11-19T01:41:59;98137.25;;;2.01;100.00
9672;BME280;4874;43.568;27.824;2023-11-19T01:44:25;98142.88;;;2.07;100.00
9672;BME280;4874;43.568;27.824;2023-11-19T01:46:52;98165.47;;;2.08;100.00
9672;BME280;4874;43.568;27.824;2023-11-19T01:49:19;98153.34;;;2.07;100.00
9672;BME280;4874;43.568;27.824;2023-11-19T01:51:47;98111.47;;;1.60;100.00
9672;BME280;4874;43.568;27.824;2023-11-19T01:54:14;98168.72;;;1.88;100.00
9672;BME280;4874;43.568;27.824;2023-11-19T01:56:42;98163.16;;;1.80;100.00
9672;BME280;4874;43.568;27.824;2023-11-19T01:59:11;98154.50;;;1.80;100.00
9672;BME280;4874;43.568;27.824;2023-11-19T02:01:41;98160.66;;;1.79;100.00
9672;BME280;4874;43.568;27.824;2023-11-19T02:04:08;98173.63;;;1.80;100.00
9672;BME280;4874;43.568;27.824;2023-11-19T02:06:40;98159.81;;;1.78;100.00
9672;BME280;4874;43.568;27.824;2023-11-19T02:09:09;98148.47;;;1.67;100.00
9672;BME280;4874;43.568;27.824;2023-11-19T02:11:36;98155.31;;;1.80;100.00
9672;BME280;4874;43.568;27.824;2023-11-19T02:14:03;98178.56;;;1.85;100.00
9672;BME280;4874;43.568;27.824;2023-11-19T02:16:30;98188.41;;;1.81;100.00
9672;BME280;4874;43.568;27.824;2023-11-19T02:18:57;98173.81;;;1.66;100.00
9672;BME280;4874;43.568;27.824;2023-11-19T02:21:24;98191.19;;;1.91;100.00
9672;BME280;4874;43.568;27.824;2023-11-19T02:23:51;98192.25;;;2.35;100.00
9672;BME280;4874;43.568;27.824;2023-11-19T02:26:39;98198.50;;;1.98;100.00
9672;BME280;4874;43.568;27.824;2023-11-19T02:29:10;98205.63;;;1.96;100.00
9672;BME280;4874;43.568;27.824;2023-11-19T02:31:37;98179.19;;;1.88;100.00
9672;BME280;4874;43.568;27.824;2023-11-19T02:34:04;98211.72;;;1.84;100.00
9672;BME280;4874;43.568;27.824;2023-11-19T02:36:32;98193.91;;;1.89;100.00
9672;BME280;4874;43.568;27.824;2023-11-19T02:38:59;98176.34;;;1.91;100.00
9672;BME280;4874;43.568;27.824;2023-11-19T02:41:26;98191.03;;;1.81;100.00
9672;BME280;4874;43.568;27.824;2023-11-19T02:43:52;98209.97;;;2.08;100.00
9672;BME280;4874;43.568;27.824;2023-11-19T02:46:20;98196.66;;;1.88;100.00
9672;BME280;4874;43.568;27.824;2023-11-19T02:48:46;98184.81;;;2.18;100.00
9672;BME280;4874;43.568;27.824;2023-11-19T02:51:13;98196.31;;;1.92;100.00
9672;BME280;4874;43.568;27.824;2023-11-19T02:53:40;98184.41;;;2.12;100.00
9672;BME280;4874;43.568;27.824;2023-11-19T02:56:07;98160.66;;;1.79;100.00
9672;BME280;4874;43.568;27.824;2023-11-19T02:58:54;98182.72;;;1.87;100.00
9672;BME280;4874;43.568;27.824;2023-11-19T03:01:25;98209.72;;;2.24;100.00
9672;BME280;4874;43.568;27.824;2023-11-19T03:04:00;98202.91;;;1.85;100.00
9672;BME280;4874;43.568;27.824;2023-11-19T03:06:29;98216.81;;;2.46;100.00
9672;BME280;4874;43.568;27.824;2023-11-19T03:08:56;98224.44;;;2.01;100.00
9672;BME280;4874;43.568;27.824;2023-11-19T03:11:22;98242.41;;;2.06;100.00
9672;BME280;4874;43.568;27.824;2023-11-19T03:13:49;98223.63;;;2.24;100.00
9672;BME280;4874;43.568;27.824;2023-11-19T03:16:16;98231.66;;;2.10;100.00
9672;BME280;4874;43.568;27.824;2023-11-19T03:18:43;98236.91;;;1.98;100.00
9672;BME280;4874;43.568;27.824;2023-11-19T03:21:10;98237.00;;;2.09;100.00
9672;BME280;4874;43.568;27.824;2023-11-19T03:23:37;98243.03;;;2.09;100.00
9672;BME280;4874;43.568;27.824;2023-11-19T03:26:04;98234.06;;;2.01;100.00
9672;BME280;4874;43.568;27.824;2023-11-19T03:28:32;98235.66;;;2.03;100.00
9672;BME280;4874;43.568;27.824;2023-11-19T03:30:59;98250.78;;;2.11;100.00
9672;BME280;4874;43.568;27.824;2023-11-19T03:33:26;98237.09;;;2.07;100.00
9672;BME280;4874;43.568;27.824;2023-11-19T03:35:56;98231.16;;;2.29;100.00
9672;BME280;4874;43.568;27.824;2023-11-19T03:38:24;98253.50;;;2.09;100.00
9672;BME280;4874;43.568;27.824;2023-11-19T03:40:53;98228.09;;;1.99;100.00
9672;BME280;4874;43.568;27.824;2023-11-19T03:43:20;98249.66;;;2.02;100.00
9672;BME280;4874;43.568;27.824;2023-11-19T03:45:47;98256.84;;;2.24;100.00
9672;BME280;4874;43.568;27.824;2023-11-19T03:48:14;98245.84;;;2.19;100.00
9672;BME280;4874;43.568;27.824;2023-11-19T03:50:45;98258.34;;;2.03;100.00
9672;BME280;4874;43.568;27.824;2023-11-19T03:53:12;98267.97;;;2.02;100.00
9672;BME280;4874;43.568;27.824;2023-11-19T03:55:39;98276.16;;;2.10;100.00
9672;BME280;4874;43.568;27.824;2023-11-19T03:58:05;98273.91;;;2.17;100.00
9672;BME280;4874;43.568;27.824;2023-11-19T04:00:32;98217.81;;;1.72;100.00
9672;BME280;4874;43.568;27.824;2023-11-19T04:02:59;98256.13;;;2.09;100.00
9672;BME280;4874;43.568;27.824;2023-11-19T04:05:27;98268.81;;;2.03;100.00
9672;BME280;4874;43.568;27.824;2023-11-19T04:07:54;98279.75;;;1.97;100.00
9672;BME280;4874;43.568;27.824;2023-11-19T04:10:20;98276.56;;;2.40;100.00
9672;BME280;4874;43.568;27.824;2023-11-19T04:12:49;98281.81;;;2.04;100.00
9672;BME280;4874;43.568;27.824;2023-11-19T04:15:16;98270.91;;;2.10;100.00
9672;BME280;4874;43.568;27.824;2023-11-19T04:17:43;98295.63;;;2.06;100.00
9672;BME280;4874;43.568;27.824;2023-11-19T04:20:10;98296.34;;;2.08;100.00
9672;BME280;4874;43.568;27.824;2023-11-19T04:22:39;98306.09;;;2.06;100.00
9672;BME280;4874;43.568;27.824;2023-11-19T04:25:07;98295.31;;;1.98;100.00
9672;BME280;4874;43.568;27.824;2023-11-19T04:27:35;98292.00;;;2.32;100.00
9672;BME280;4874;43.568;27.824;2023-11-19T04:30:01;98299.31;;;2.04;100.00
9672;BME280;4874;43.568;27.824;2023-11-19T04:32:30;98304.72;;;2.01;100.00
9672;BME280;4874;43.568;27.824;2023-11-19T04:34:57;98288.13;;;1.89;100.00
9672;BME280;4874;43.568;27.824;2023-11-19T04:37:23;98315.81;;;2.04;100.00
9672;BME280;4874;43.568;27.824;2023-11-19T04:39:51;98345.34;;;2.06;100.00
9672;BME280;4874;43.568;27.824;2023-11-19T04:42:18;98320.19;;;2.16;100.00
9672;BME280;4874;43.568;27.824;2023-11-19T04:44:45;98326.09;;;2.07;100.00
9672;BME280;4874;43.568;27.824;2023-11-19T04:47:11;98335.84;;;2.05;100.00
9672;BME280;4874;43.568;27.824;2023-11-19T04:49:41;98339.53;;;2.26;100.00
9672;BME280;4874;43.568;27.824;2023-11-19T04:52:09;98371.19;;;2.11;100.00
9672;BME280;4874;43.568;27.824;2023-11-19T04:54:40;98315.72;;;2.06;100.00
9672;BME280;4874;43.568;27.824;2023-11-19T04:57:07;98350.06;;;2.01;100.00
9672;BME280;4874;43.568;27.824;2023-11-19T04:59:36;98323.91;;;1.89;100.00
9672;BME280;4874;43.568;27.824;2023-11-19T05:02:04;98397.69;;;2.06;100.00
9672;BME280;4874;43.568;27.824;2023-11-19T05:04:31;98350.81;;;2.03;100.00
9672;BME280;4874;43.568;27.824;2023-11-19T05:06:58;98380.53;;;2.02;100.00
9672;BME280;4874;43.568;27.824;2023-11-19T05:09:25;98380.63;;;2.01;100.00
9672;BME280;4874;43.568;27.824;2023-11-19T05:11:51;98390.47;;;1.97;100.00
9672;BME280;4874;43.568;27.824;2023-11-19T05:14:18;98272.88;;;1.33;100.00
9672;BME280;4874;43.568;27.824;2023-11-19T05:16:47;98357.28;;;1.98;100.00
9672;BME280;4874;43.568;27.824;2023-11-19T05:19:13;98370.91;;;2.03;100.00
9672;BME280;4874;43.568;27.824;2023-11-19T05:21:44;98359.38;;;1.80;100.00
9672;BME280;4874;43.568;27.824;2023-11-19T05:24:11;98346.13;;;1.83;100.00
9672;BME280;4874;43.568;27.824;2023-11-19T05:26:40;98384.81;;;2.03;100.00
9672;BME280;4874;43.568;27.824;2023-11-19T05:29:07;98395.94;;;2.07;100.00
9672;BME280;4874;43.568;27.824;2023-11-19T05:31:34;98379.69;;;2.02;100.00
9672;BME280;4874;43.568;27.824;2023-11-19T05:34:01;98404.00;;;1.91;100.00
9672;BME280;4874;43.568;27.824;2023-11-19T05:36:28;98384.72;;;1.92;100.00
9672;BME280;4874;43.568;27.824;2023-11-19T05:38:55;98399.59;;;1.92;100.00
9672;BME280;4874;43.568;27.824;2023-11-19T05:41:22;98351.72;;;2.02;100.00
9672;BME280;4874;43.568;27.824;2023-11-19T05:43:49;98421.88;;;1.97;100.00
9672;BME280;4874;43.568;27.824;2023-11-19T05:46:16;98421.03;;;1.84;100.00
9672;BME280;4874;43.568;27.824;2023-11-19T05:48:45;98428.56;;;1.89;100.00
9672;BME280;4874;43.568;27.824;2023-11-19T05:51:13;98417.91;;;1.79;100.00
9672;BME280;4874;43.568;27.824;2023-11-19T05:53:41;98413.69;;;1.77;100.00
9672;BME280;4874;43.568;27.824;2023-11-19T05:56:08;98437.06;;;1.80;100.00
9672;BME280;4874;43.568;27.824;2023-11-19T05:58:36;98434.34;;;1.81;100.00
9672;BME280;4874;43.568;27.824;2023-11-19T06:01:04;98414.34;;;1.68;100.00
9672;BME280;4874;43.568;27.824;2023-11-19T06:03:31;98438.41;;;1.85;100.00
9672;BME280;4874;43.568;27.824;2023-11-19T06:05:58;98457.25;;;2.28;100.00
9672;BME280;4874;43.568;27.824;2023-11-19T06:08:25;98425.56;;;1.95;100.00
9672;BME280;4874;43.568;27.824;2023-11-19T06:10:53;98419.25;;;1.97;100.00
9672;BME280;4874;43.568;27.824;2023-11-19T06:13:20;98444.41;;;2.12;100.00
9672;BME280;4874;43.568;27.824;2023-11-19T06:15:50;98427.22;;;1.71;100.00
9672;BME280;4874;43.568;27.824;2023-11-19T06:18:17;98421.44;;;1.78;100.00
9672;BME280;4874;43.568;27.824;2023-11-19T06:20:46;98452.94;;;1.64;100.00
9672;BME280;4874;43.568;27.824;2023-11-19T06:23:13;98399.03;;;1.62;100.00
9672;BME280;4874;43.568;27.824;2023-11-19T06:25:40;98448.97;;;1.71;100.00
9672;BME280;4874;43.568;27.824;2023-11-19T06:28:06;98448.03;;;1.72;100.00
9672;BME280;4874;43.568;27.824;2023-11-19T06:30:33;98436.50;;;1.62;100.00
9672;BME280;4874;43.568;27.824;2023-11-19T06:33:00;98438.25;;;1.49;100.00
9672;BME280;4874;43.568;27.824;2023-11-19T06:35:26;98442.91;;;1.71;100.00
9672;BME280;4874;43.568;27.824;2023-11-19T06:37:55;98448.16;;;1.83;100.00
9672;BME280;4874;43.568;27.824;2023-11-19T06:40:22;98462.28;;;1.93;100.00
9672;BME280;4874;43.568;27.824;2023-11-19T06:42:49;98449.09;;;1.82;100.00
9672;BME280;4874;43.568;27.824;2023-11-19T06:45:15;98462.06;;;1.71;100.00
9672;BME280;4874;43.568;27.824;2023-11-19T06:47:42;98463.88;;;1.83;100.00
9672;BME280;4874;43.568;27.824;2023-11-19T06:50:09;98476.91;;;1.71;100.00
9672;BME280;4874;43.568;27.824;2023-11-19T06:52:36;98474.56;;;1.54;100.00
9672;BME280;4874;43.568;27.824;2023-11-19T06:55:04;98500.81;;;1.52;100.00
9672;BME280;4874;43.568;27.824;2023-11-19T06:57:34;98491.94;;;1.55;100.00
9672;BME280;4874;43.568;27.824;2023-11-19T07:00:01;98466.03;;;1.38;100.00
9672;BME280;4874;43.568;27.824;2023-11-19T07:02:28;98509.75;;;1.62;100.00
9672;BME280;4874;43.568;27.824;2023-11-19T07:04:54;98505.44;;;1.61;100.00
9672;BME280;4874;43.568;27.824;2023-11-19T07:07:21;98489.78;;;1.74;100.00
9672;BME280;4874;43.568;27.824;2023-11-19T07:09:48;98507.03;;;1.64;100.00
9672;BME280;4874;43.568;27.824;2023-11-19T07:12:15;98496.41;;;1.79;100.00
9672;BME280;4874;43.568;27.824;2023-11-19T07:14:42;98508.94;;;1.74;100.00
9672;BME280;4874;43.568;27.824;2023-11-19T07:17:09;98490.78;;;1.59;100.00
9672;BME280;4874;43.568;27.824;2023-11-19T07:19:36;98505.38;;;1.63;100.00
9672;BME280;4874;43.568;27.824;2023-11-19T07:22:05;98504.25;;;1.79;100.00
9672;BME280;4874;43.568;27.824;2023-11-19T07:24:33;98522.06;;;1.60;100.00
9672;BME280;4874;43.568;27.824;2023-11-19T07:26:59;98507.88;;;1.64;100.00
9672;BME280;4874;43.568;27.824;2023-11-19T07:29:27;98532.09;;;1.54;100.00
9672;BME280;4874;43.568;27.824;2023-11-19T07:31:54;98522.06;;;1.60;100.00
9672;BME280;4874;43.568;27.824;2023-11-19T07:34:22;98501.38;;;1.70;100.00
9672;BME280;4874;43.568;27.824;2023-11-19T07:36:50;98529.94;;;1.60;100.00
9672;BME280;4874;43.568;27.824;2023-11-19T07:39:16;98525.50;;;1.48;100.00
9672;BME280;4874;43.568;27.824;2023-11-19T07:41:43;98532.50;;;1.48;100.00
9672;BME280;4874;43.568;27.824;2023-11-19T07:44:10;98531.47;;;1.89;100.00
9672;BME280;4874;43.568;27.824;2023-11-19T07:46:37;98523.06;;;1.45;100.00
9672;BME280;4874;43.568;27.824;2023-11-19T07:49:04;98523.28;;;1.42;100.00
9672;BME280;4874;43.568;27.824;2023-11-19T07:51:31;98542.41;;;1.69;100.00
9672;BME280;4874;43.568;27.824;2023-11-19T07:53:58;98530.91;;;1.72;100.00
9672;BME280;4874;43.568;27.824;2023-11-19T07:56:24;98549.72;;;1.64;100.00
9672;BME280;4874;43.568;27.824;2023-11-19T07:58:51;98551.53;;;1.50;100.00
9672;BME280;4874;43.568;27.824;2023-11-19T08:01:19;98548.44;;;1.57;100.00
9672;BME280;4874;43.568;27.824;2023-11-19T08:03:45;98567.88;;;1.53;100.00
9672;BME280;4874;43.568;27.824;2023-11-19T08:06:15;98593.44;;;1.62;100.00
9672;BME280;4874;43.568;27.824;2023-11-19T08:08:42;98545.16;;;1.80;100.00
9672;BME280;4874;43.568;27.824;2023-11-19T08:11:10;98583.16;;;2.12;100.00
9672;BME280;4874;43.568;27.824;2023-11-19T08:13:37;98587.41;;;2.01;100.00
9672;BME280;4874;43.568;27.824;2023-11-19T08:16:04;98573.50;;;2.13;100.00
9672;BME280;4874;43.568;27.824;2023-11-19T08:18:31;98597.44;;;1.94;100.00
9672;BME280;4874;43.568;27.824;2023-11-19T08:20:57;98586.53;;;1.88;100.00
9672;BME280;4874;43.568;27.824;2023-11-19T08:23:26;98578.03;;;1.84;100.00
9672;BME280;4874;43.568;27.824;2023-11-19T08:25:52;98591.72;;;2.02;100.00
9672;BME280;4874;43.568;27.824;2023-11-19T08:28:19;98581.59;;;1.83;100.00
9672;BME280;4874;43.568;27.824;2023-11-19T08:30:46;98580.97;;;1.92;100.00
9672;BME280;4874;43.568;27.824;2023-11-19T08:33:13;98535.06;;;1.62;100.00
9672;BME280;4874;43.568;27.824;2023-11-19T08:35:41;98599.84;;;1.97;100.00
9672;BME280;4874;43.568;27.824;2023-11-19T08:38:08;98587.50;;;1.99;100.00
9672;BME280;4874;43.568;27.824;2023-11-19T08:40:35;98603.41;;;1.96;100.00
9672;BME280;4874;43.568;27.824;2023-11-19T08:43:01;98596.91;;;1.89;100.00
9672;BME280;4874;43.568;27.824;2023-11-19T08:45:28;98591.50;;;1.78;100.00
9672;BME280;4874;43.568;27.824;2023-11-19T08:47:55;98597.59;;;1.79;100.00
9672;BME280;4874;43.568;27.824;2023-11-19T08:50:22;98611.09;;;1.85;100.00
9672;BME280;4874;43.568;27.824;2023-11-19T08:52:49;98609.22;;;2.14;100.00
9672;BME280;4874;43.568;27.824;2023-11-19T08:55:16;98598.91;;;1.98;100.00
9672;BME280;4874;43.568;27.824;2023-11-19T08:57:43;98595.56;;;1.96;100.00
9672;BME280;4874;43.568;27.824;2023-11-19T09:00:10;98601.91;;;2.19;100.00
9672;BME280;4874;43.568;27.824;2023-11-19T09:02:37;98583.31;;;1.97;100.00
9672;BME280;4874;43.568;27.824;2023-11-19T09:05:04;98600.84;;;2.09;100.00
9672;BME280;4874;43.568;27.824;2023-11-19T09:07:32;98609.75;;;3.44;100.00
9672;BME280;4874;43.568;27.824;2023-11-19T09:09:58;98595.72;;;2.07;100.00
9672;BME280;4874;43.568;27.824;2023-11-19T09:12:25;98609.97;;;2.16;100.00
9672;BME280;4874;43.568;27.824;2023-11-19T09:14:52;98605.72;;;2.01;100.00
9672;BME280;4874;43.568;27.824;2023-11-19T09:17:19;98620.34;;;2.17;100.00
9672;BME280;4874;43.568;27.824;2023-11-19T09:19:45;98614.75;;;2.09;100.00
9672;BME280;4874;43.568;27.824;2023-11-19T09:22:12;98629.75;;;2.20;100.00
9672;BME280;4874;43.568;27.824;2023-11-19T09:24:39;98634.06;;;2.21;100.00
9672;BME280;4874;43.568;27.824;2023-11-19T09:27:06;98585.09;;;1.70;100.00
9672;BME280;4874;43.568;27.824;2023-11-19T09:29:33;98613.81;;;2.10;100.00
9672;BME280;4874;43.568;27.824;2023-11-19T09:31:59;98625.69;;;2.28;100.00
9672;BME280;4874;43.568;27.824;2023-11-19T09:34:27;98583.50;;;1.94;100.00
9672;BME280;4874;43.568;27.824;2023-11-19T09:36:54;98625.56;;;1.91;100.00
9672;BME280;4874;43.568;27.824;2023-11-19T09:39:21;98628.63;;;1.97;100.00
9672;BME280;4874;43.568;27.824;2023-11-19T09:41:48;98629.91;;;2.04;100.00
9672;BME280;4874;43.568;27.824;2023-11-19T09:44:15;98580.16;;;1.92;100.00
9672;BME280;4874;43.568;27.824;2023-11-19T09:46:45;98611.22;;;2.23;100.00
9672;BME280;4874;43.568;27.824;2023-11-19T09:49:13;98615.22;;;2.16;100.00
9672;BME280;4874;43.568;27.824;2023-11-19T09:51:40;98619.28;;;2.20;100.00
9672;BME280;4874;43.568;27.824;2023-11-19T09:54:08;98610.56;;;2.19;100.00
9672;BME280;4874;43.568;27.824;2023-11-19T09:56:37;98613.63;;;2.13;100.00
9672;BME280;4874;43.568;27.824;2023-11-19T09:59:05;98620.97;;;2.21;100.00
9672;BME280;4874;43.568;27.824;2023-11-19T10:01:35;98617.84;;;2.28;100.00
9672;BME280;4874;43.568;27.824;2023-11-19T10:04:02;98635.56;;;2.37;100.00
9672;BME280;4874;43.568;27.824;2023-11-19T10:06:29;98618.72;;;2.42;100.00
9672;BME280;4874;43.568;27.824;2023-11-19T10:08:56;98627.72;;;2.37;100.00
9672;BME280;4874;43.568;27.824;2023-11-19T10:11:23;98624.59;;;2.45;100.00
9672;BME280;4874;43.568;27.824;2023-11-19T10:13:53;98622.97;;;2.30;100.00
9672;BME280;4874;43.568;27.824;2023-11-19T10:16:20;98618.06;;;2.51;100.00
9672;BME280;4874;43.568;27.824;2023-11-19T10:18:49;98637.09;;;2.79;100.00
9672;BME280;4874;43.568;27.824;2023-11-19T10:21:19;98620.81;;;2.36;100.00
9672;BME280;4874;43.568;27.824;2023-11-19T10:23:51;98622.00;;;2.83;100.00
9672;BME280;4874;43.568;27.824;2023-11-19T10:26:20;98580.66;;;2.49;100.00
9672;BME280;4874;43.568;27.824;2023-11-19T10:28:48;98630.59;;;2.72;100.00
9672;BME280;4874;43.568;27.824;2023-11-19T10:31:16;98644.50;;;2.60;100.00
9672;BME280;4874;43.568;27.824;2023-11-19T10:33:44;98643.16;;;2.80;100.00
9672;BME280;4874;43.568;27.824;2023-11-19T10:36:11;98651.88;;;2.93;100.00
9672;BME280;4874;43.568;27.824;2023-11-19T10:38:39;98651.97;;;2.79;100.00
9672;BME280;4874;43.568;27.824;2023-11-19T10:41:07;98649.84;;;2.71;100.00
9672;BME280;4874;43.568;27.824;2023-11-19T10:43:44;98660.44;;;2.70;100.00
9672;BME280;4874;43.568;27.824;2023-11-19T10:46:14;98632.88;;;2.52;100.00
9672;BME280;4874;43.568;27.824;2023-11-19T10:48:41;98586.84;;;2.48;100.00
9672;BME280;4874;43.568;27.824;2023-11-19T10:51:07;98642.66;;;3.00;100.00
9672;BME280;4874;43.568;27.824;2023-11-19T10:53:38;98627.31;;;2.81;100.00
9672;BME280;4874;43.568;27.824;2023-11-19T10:56:10;98625.75;;;2.79;100.00
9672;BME280;4874;43.568;27.824;2023-11-19T10:58:38;98666.84;;;3.16;100.00
9672;BME280;4874;43.568;27.824;2023-11-19T11:01:13;98662.22;;;3.07;100.00
9672;BME280;4874;43.568;27.824;2023-11-19T11:03:44;98650.38;;;3.14;100.00
9672;BME280;4874;43.568;27.824;2023-11-19T11:06:13;98657.63;;;3.35;100.00
9672;BME280;4874;43.568;27.824;2023-11-19T11:08:40;98653.97;;;3.13;100.00
9672;BME280;4874;43.568;27.824;2023-11-19T11:11:07;98657.09;;;3.30;100.00
9672;BME280;4874;43.568;27.824;2023-11-19T11:13:36;98666.84;;;3.41;100.00
9672;BME280;4874;43.568;27.824;2023-11-19T11:16:04;98665.56;;;3.46;100.00
9672;BME280;4874;43.568;27.824;2023-11-19T11:18:33;98670.72;;;3.84;100.00
9672;BME280;4874;43.568;27.824;2023-11-19T11:21:04;98662.34;;;4.96;100.00
9672;BME280;4874;43.568;27.824;2023-11-19T11:23:39;98680.94;;;4.00;100.00
9672;BME280;4874;43.568;27.824;2023-11-19T11:30:00;98697.63;;;4.11;100.00
9672;BME280;4874;43.568;27.824;2023-11-19T11:54:52;98696.94;;;3.97;100.00
9672;BME280;4874;43.568;27.824;2023-11-19T11:57:20;98711.56;;;3.88;100.00
9672;BME280;4874;43.568;27.824;2023-11-19T11:59:53;98707.28;;;3.75;100.00
9672;BME280;4874;43.568;27.824;2023-11-19T12:02:22;98707.78;;;3.92;100.00
9672;BME280;4874;43.568;27.824;2023-11-19T12:04:52;98685.75;;;3.82;100.00
9672;BME280;4874;43.568;27.824;2023-11-19T12:07:21;98692.94;;;4.04;100.00
9672;BME280;4874;43.568;27.824;2023-11-19T12:09:53;98708.09;;;3.88;100.00
9672;BME280;4874;43.568;27.824;2023-11-19T12:12:22;98727.66;;;3.71;100.00
9672;BME280;4874;43.568;27.824;2023-11-19T12:15:16;98702.03;;;3.75;100.00
9672;BME280;4874;43.568;27.824;2023-11-19T12:17:43;98707.03;;;3.90;100.00
9672;BME280;4874;43.568;27.824;2023-11-19T12:20:13;98714.53;;;3.71;100.00
9672;BME280;4874;43.568;27.824;2023-11-19T12:22:41;98652.94;;;3.51;100.00
9672;BME280;4874;43.568;27.824;2023-11-19T12:25:09;98679.28;;;3.63;100.00
9672;BME280;4874;43.568;27.824;2023-11-19T12:27:43;98711.44;;;3.90;100.00
9672;BME280;4874;43.568;27.824;2023-11-19T12:30:10;98719.94;;;3.93;100.00
9672;BME280;4874;43.568;27.824;2023-11-19T12:32:43;98695.00;;;4.11;100.00
9672;BME280;4874;43.568;27.824;2023-11-19T12:35:11;98698.34;;;3.77;100.00
9672;BME280;4874;43.568;27.824;2023-11-19T12:37:48;98707.91;;;3.78;100.00
9672;BME280;4874;43.568;27.824;2023-11-19T12:40:19;98722.81;;;3.78;100.00
9672;BME280;4874;43.568;27.824;2023-11-19T12:42:54;98725.47;;;4.01;100.00
9672;BME280;4874;43.568;27.824;2023-11-19T12:45:22;98734.66;;;4.32;100.00
9672;BME280;4874;43.568;27.824;2023-11-19T12:48:07;98732.72;;;4.34;100.00
9672;BME280;4874;43.568;27.824;2023-11-19T12:50:56;98736.59;;;4.05;100.00
9672;BME280;4874;43.568;27.824;2023-11-19T12:53:28;98727.94;;;3.92;100.00
9672;BME280;4874;43.568;27.824;2023-11-19T12:56:07;98740.78;;;4.20;100.00
9672;BME280;4874;43.568;27.824;2023-11-19T12:58:35;98674.53;;;4.27;100.00
9672;BME280;4874;43.568;27.824;2023-11-19T13:01:06;98737.28;;;5.36;100.00
9672;BME280;4874;43.568;27.824;2023-11-19T13:03:38;98737.88;;;4.35;100.00
9672;BME280;4874;43.568;27.824;2023-11-19T13:06:13;98726.47;;;4.47;100.00
9672;BME280;4874;43.568;27.824;2023-11-19T13:08:45;98730.72;;;4.37;100.00
9672;BME280;4874;43.568;27.824;2023-11-19T13:11:33;98710.53;;;4.38;100.00
9672;BME280;4874;43.568;27.824;2023-11-19T13:14:03;98719.66;;;4.21;100.00
9672;BME280;4874;43.568;27.824;2023-11-19T13:16:37;98746.81;;;4.33;100.00
9672;BME280;4874;43.568;27.824;2023-11-19T13:19:04;98706.19;;;4.26;100.00
9672;BME280;4874;43.568;27.824;2023-11-19T13:21:31;98745.25;;;4.30;100.00
9672;BME280;4874;43.568;27.824;2023-11-19T13:23:58;98751.56;;;4.04;100.00
9672;BME280;4874;43.568;27.824;2023-11-19T13:26:25;98756.97;;;4.14;100.00
9672;BME280;4874;43.568;27.824;2023-11-19T13:28:52;98752.72;;;3.88;100.00
9672;BME280;4874;43.568;27.824;2023-11-19T13:31:19;98762.88;;;4.05;100.00
9672;BME280;4874;43.568;27.824;2023-11-19T13:33:45;98763.94;;;4.02;100.00
9672;BME280;4874;43.568;27.824;2023-11-19T13:36:12;98761.38;;;4.13;100.00
9672;BME280;4874;43.568;27.824;2023-11-19T13:38:41;98757.38;;;4.20;100.00
9672;BME280;4874;43.568;27.824;2023-11-19T13:41:08;98763.31;;;4.11;100.00